< < Back
Terminal Aerodrome Forecast


Current Version              Previous Versions:   1  2  3  4  5  6  7  8  9  

Terminal Aerodrome Forecast

455
FTUS42 KJAX 252300
TAFJAX
TAF
KJAX 252332Z 2600/2624 36009KT 2SM RA OVC005
     FM260900 30010KT 4SM BR VCSH BKN003
     FM261500 32015G25KT P6SM BKN010
     FM261900 29012G20KT P6SM FEW010=

Latest METAR

084
SAUS80 KWBC 260000
MTRJAX
METAR KJAX 252356Z 04010KT 3SM RA BR BKN006 OVC012 17/17 A2993 RMK AO2
SLP134 P0022 60142 T01670167 10206 20167 56022


USA.gov is the U.S. government's official web portal to all federal, state and local government web resources and services.